sensor_id;sensor_type;location;lat;lon;timestamp;temperature;humidity
19880;DHT22;10102;50.828;4.416;2023-12-07T00:01:42;5.80;99.90
19880;DHT22;10102;50.828;4.416;2023-12-07T00:04:09;5.80;99.90
19880;DHT22;10102;50.828;4.416;2023-12-07T00:06:36;6.30;99.90
19880;DHT22;10102;50.828;4.416;2023-12-07T00:09:02;5.90;99.90
19880;DHT22;10102;50.828;4.416;2023-12-07T00:11:31;6.00;99.90
19880;DHT22;10102;50.828;4.416;2023-12-07T00:13:57;5.90;99.90
19880;DHT22;10102;50.828;4.416;2023-12-07T00:16:22;5.80;99.90
19880;DHT22;10102;50.828;4.416;2023-12-07T00:18:48;5.70;99.90
19880;DHT22;10102;50.828;4.416;2023-12-07T00:21:15;5.40;99.90
19880;DHT22;10102;50.828;4.416;2023-12-07T00:23:41;5.20;99.90
19880;DHT22;10102;50.828;4.416;2023-12-07T00:26:07;5.20;99.90
19880;DHT22;10102;50.828;4.416;2023-12-07T00:28:33;5.00;99.90
19880;DHT22;10102;50.828;4.416;2023-12-07T00:31:00;5.20;99.90
19880;DHT22;10102;50.828;4.416;2023-12-07T00:33:25;5.40;99.90
19880;DHT22;10102;50.828;4.416;2023-12-07T00:35:52;5.30;99.90
19880;DHT22;10102;50.828;4.416;2023-12-07T00:38:18;5.30;99.90
19880;DHT22;10102;50.828;4.416;2023-12-07T00:40:44;5.40;99.90
19880;DHT22;10102;50.828;4.416;2023-12-07T00:43:09;5.90;99.90
19880;DHT22;10102;50.828;4.416;2023-12-07T00:45:35;5.60;99.90
19880;DHT22;10102;50.828;4.416;2023-12-07T00:48:01;5.90;99.90
19880;DHT22;10102;50.828;4.416;2023-12-07T00:52:53;5.50;99.90
19880;DHT22;10102;50.828;4.416;2023-12-07T00:55:18;5.40;99.90
19880;DHT22;10102;50.828;4.416;2023-12-07T00:57:44;5.00;99.90
19880;DHT22;10102;50.828;4.416;2023-12-07T01:00:10;5.00;99.90
19880;DHT22;10102;50.828;4.416;2023-12-07T01:02:36;4.90;99.90
19880;DHT22;10102;50.828;4.416;2023-12-07T01:05:02;5.00;99.90
19880;DHT22;10102;50.828;4.416;2023-12-07T01:07:27;5.00;99.90
19880;DHT22;10102;50.828;4.416;2023-12-07T01:09:53;5.10;99.90
19880;DHT22;10102;50.828;4.416;2023-12-07T01:12:19;5.10;99.90
19880;DHT22;10102;50.828;4.416;2023-12-07T01:14:45;5.20;99.90
19880;DHT22;10102;50.828;4.416;2023-12-07T01:17:11;5.10;99.90
19880;DHT22;10102;50.828;4.416;2023-12-07T01:22:03;5.10;99.90
19880;DHT22;10102;50.828;4.416;2023-12-07T01:24:29;4.90;99.90
19880;DHT22;10102;50.828;4.416;2023-12-07T01:26:55;5.00;99.90
19880;DHT22;10102;50.828;4.416;2023-12-07T01:29:20;4.80;99.90
19880;DHT22;10102;50.828;4.416;2023-12-07T01:31:46;4.80;99.90
19880;DHT22;10102;50.828;4.416;2023-12-07T01:34:12;5.00;99.90
19880;DHT22;10102;50.828;4.416;2023-12-07T01:36:38;5.10;99.90
19880;DHT22;10102;50.828;4.416;2023-12-07T01:39:04;5.10;99.90
19880;DHT22;10102;50.828;4.416;2023-12-07T01:41:30;5.10;99.90
19880;DHT22;10102;50.828;4.416;2023-12-07T01:43:56;5.00;99.90
19880;DHT22;10102;50.828;4.416;2023-12-07T01:48:48;5.00;99.90
19880;DHT22;10102;50.828;4.416;2023-12-07T01:51:15;4.80;99.90
19880;DHT22;10102;50.828;4.416;2023-12-07T01:53:42;4.80;99.90
19880;DHT22;10102;50.828;4.416;2023-12-07T01:56:09;4.60;99.90
19880;DHT22;10102;50.828;4.416;2023-12-07T01:58:36;4.80;99.90
19880;DHT22;10102;50.828;4.416;2023-12-07T02:01:02;4.70;99.90
19880;DHT22;10102;50.828;4.416;2023-12-07T02:03:30;4.80;99.90
19880;DHT22;10102;50.828;4.416;2023-12-07T02:05:58;4.80;99.90
19880;DHT22;10102;50.828;4.416;2023-12-07T02:08:24;4.70;99.90
19880;DHT22;10102;50.828;4.416;2023-12-07T02:10:50;5.00;99.90
19880;DHT22;10102;50.828;4.416;2023-12-07T02:13:19;4.60;99.90
19880;DHT22;10102;50.828;4.416;2023-12-07T02:15:45;4.80;99.90
19880;DHT22;10102;50.828;4.416;2023-12-07T02:18:40;4.90;99.90
19880;DHT22;10102;50.828;4.416;2023-12-07T02:21:28;5.10;99.90
19880;DHT22;10102;50.828;4.416;2023-12-07T02:23:56;5.10;99.90
19880;DHT22;10102;50.828;4.416;2023-12-07T02:26:31;5.10;99.90
19880;DHT22;10102;50.828;4.416;2023-12-07T02:28:57;4.90;99.90
19880;DHT22;10102;50.828;4.416;2023-12-07T02:31:23;4.90;99.90
19880;DHT22;10102;50.828;4.416;2023-12-07T02:33:48;4.90;99.90
19880;DHT22;10102;50.828;4.416;2023-12-07T02:36:18;4.70;99.90
19880;DHT22;10102;50.828;4.416;2023-12-07T02:38:46;4.70;99.90
19880;DHT22;10102;50.828;4.416;2023-12-07T02:41:13;4.80;99.90
19880;DHT22;10102;50.828;4.416;2023-12-07T02:43:40;4.90;99.90
19880;DHT22;10102;50.828;4.416;2023-12-07T02:46:05;5.00;99.90
19880;DHT22;10102;50.828;4.416;2023-12-07T02:48:31;5.20;99.90
19880;DHT22;10102;50.828;4.416;2023-12-07T02:50:57;5.20;99.90
19880;DHT22;10102;50.828;4.416;2023-12-07T02:53:26;5.00;99.90
19880;DHT22;10102;50.828;4.416;2023-12-07T02:55:51;5.20;99.90
19880;DHT22;10102;50.828;4.416;2023-12-07T02:58:17;5.40;99.90
19880;DHT22;10102;50.828;4.416;2023-12-07T03:00:43;5.40;99.90
19880;DHT22;10102;50.828;4.416;2023-12-07T03:03:10;5.20;99.90
19880;DHT22;10102;50.828;4.416;2023-12-07T03:05:37;4.80;99.90
19880;DHT22;10102;50.828;4.416;2023-12-07T03:08:02;4.90;99.90
19880;DHT22;10102;50.828;4.416;2023-12-07T03:10:28;4.80;99.90
19880;DHT22;10102;50.828;4.416;2023-12-07T03:15:20;5.20;99.90
19880;DHT22;10102;50.828;4.416;2023-12-07T03:20:12;5.10;99.90
19880;DHT22;10102;50.828;4.416;2023-12-07T03:22:38;5.30;99.90
19880;DHT22;10102;50.828;4.416;2023-12-07T03:25:03;5.30;99.90
19880;DHT22;10102;50.828;4.416;2023-12-07T03:27:29;5.40;99.90
19880;DHT22;10102;50.828;4.416;2023-12-07T03:32:21;5.60;99.90
19880;DHT22;10102;50.828;4.416;2023-12-07T03:34:47;5.10;99.90
19880;DHT22;10102;50.828;4.416;2023-12-07T03:39:39;5.00;99.90
19880;DHT22;10102;50.828;4.416;2023-12-07T03:42:05;5.10;99.90
19880;DHT22;10102;50.828;4.416;2023-12-07T03:44:30;5.60;99.90
19880;DHT22;10102;50.828;4.416;2023-12-07T03:46:56;5.20;99.90
19880;DHT22;10102;50.828;4.416;2023-12-07T03:49:22;5.30;99.90
19880;DHT22;10102;50.828;4.416;2023-12-07T03:51:48;5.20;99.90
19880;DHT22;10102;50.828;4.416;2023-12-07T03:54:13;5.20;99.90
19880;DHT22;10102;50.828;4.416;2023-12-07T03:56:39;5.10;99.90
19880;DHT22;10102;50.828;4.416;2023-12-07T03:59:06;5.10;99.90
19880;DHT22;10102;50.828;4.416;2023-12-07T04:03:58;5.00;99.90
19880;DHT22;10102;50.828;4.416;2023-12-07T04:06:26;4.80;99.90
19880;DHT22;10102;50.828;4.416;2023-12-07T04:08:53;5.10;99.90
19880;DHT22;10102;50.828;4.416;2023-12-07T04:11:19;5.00;99.90
19880;DHT22;10102;50.828;4.416;2023-12-07T04:13:45;4.80;99.90
19880;DHT22;10102;50.828;4.416;2023-12-07T04:16:12;5.00;99.90
19880;DHT22;10102;50.828;4.416;2023-12-07T04:18:37;4.90;99.90
19880;DHT22;10102;50.828;4.416;2023-12-07T04:21:04;4.70;99.90
19880;DHT22;10102;50.828;4.416;2023-12-07T04:23:31;4.70;99.90
19880;DHT22;10102;50.828;4.416;2023-12-07T04:28:22;4.40;99.90
19880;DHT22;10102;50.828;4.416;2023-12-07T04:30:48;4.50;99.90
19880;DHT22;10102;50.828;4.416;2023-12-07T04:33:14;4.30;99.90
19880;DHT22;10102;50.828;4.416;2023-12-07T04:35:40;4.50;99.90
19880;DHT22;10102;50.828;4.416;2023-12-07T04:38:05;4.60;99.90
19880;DHT22;10102;50.828;4.416;2023-12-07T04:40:31;4.70;99.90
19880;DHT22;10102;50.828;4.416;2023-12-07T04:45:23;4.60;99.90
19880;DHT22;10102;50.828;4.416;2023-12-07T04:47:59;4.70;99.90
19880;DHT22;10102;50.828;4.416;2023-12-07T04:50:53;4.70;99.90
19880;DHT22;10102;50.828;4.416;2023-12-07T04:53:32;4.60;99.90
19880;DHT22;10102;50.828;4.416;2023-12-07T04:55:59;4.60;99.90
19880;DHT22;10102;50.828;4.416;2023-12-07T04:58:29;4.50;99.90
19880;DHT22;10102;50.828;4.416;2023-12-07T05:00:58;4.50;99.90
19880;DHT22;10102;50.828;4.416;2023-12-07T05:03:29;4.40;99.90
19880;DHT22;10102;50.828;4.416;2023-12-07T05:05:55;4.50;99.90
19880;DHT22;10102;50.828;4.416;2023-12-07T05:08:21;4.70;99.90
19880;DHT22;10102;50.828;4.416;2023-12-07T05:10:53;4.50;99.90
19880;DHT22;10102;50.828;4.416;2023-12-07T05:13:23;4.50;99.90
19880;DHT22;10102;50.828;4.416;2023-12-07T05:15:49;4.60;99.90
19880;DHT22;10102;50.828;4.416;2023-12-07T05:18:18;4.30;99.90
19880;DHT22;10102;50.828;4.416;2023-12-07T05:20:46;4.60;99.90
19880;DHT22;10102;50.828;4.416;2023-12-07T05:23:12;4.50;99.90
19880;DHT22;10102;50.828;4.416;2023-12-07T05:25:38;4.40;99.90
19880;DHT22;10102;50.828;4.416;2023-12-07T05:28:05;4.40;99.90
19880;DHT22;10102;50.828;4.416;2023-12-07T05:30:35;4.40;99.90
19880;DHT22;10102;50.828;4.416;2023-12-07T05:33:02;4.10;99.90
19880;DHT22;10102;50.828;4.416;2023-12-07T05:35:29;4.10;99.90
19880;DHT22;10102;50.828;4.416;2023-12-07T05:37:55;4.30;99.90
19880;DHT22;10102;50.828;4.416;2023-12-07T05:40:21;4.40;99.90
19880;DHT22;10102;50.828;4.416;2023-12-07T05:42:49;4.50;99.90
19880;DHT22;10102;50.828;4.416;2023-12-07T05:45:16;4.40;99.90
19880;DHT22;10102;50.828;4.416;2023-12-07T05:47:42;4.60;99.90
19880;DHT22;10102;50.828;4.416;2023-12-07T05:52:34;4.50;99.90
19880;DHT22;10102;50.828;4.416;2023-12-07T05:54:59;4.90;99.90
19880;DHT22;10102;50.828;4.416;2023-12-07T05:59:51;4.70;99.90
19880;DHT22;10102;50.828;4.416;2023-12-07T06:04:43;4.80;99.90
19880;DHT22;10102;50.828;4.416;2023-12-07T06:07:09;4.70;99.90
19880;DHT22;10102;50.828;4.416;2023-12-07T06:09:34;4.60;99.90
19880;DHT22;10102;50.828;4.416;2023-12-07T06:12:00;4.40;99.90
19880;DHT22;10102;50.828;4.416;2023-12-07T06:14:25;4.40;99.90
19880;DHT22;10102;50.828;4.416;2023-12-07T06:19:17;4.90;99.90
19880;DHT22;10102;50.828;4.416;2023-12-07T06:21:43;4.60;99.90
19880;DHT22;10102;50.828;4.416;2023-12-07T06:24:09;4.80;99.90
19880;DHT22;10102;50.828;4.416;2023-12-07T06:26:35;4.60;99.90
19880;DHT22;10102;50.828;4.416;2023-12-07T06:29:01;4.50;99.90
19880;DHT22;10102;50.828;4.416;2023-12-07T06:31:27;4.40;99.90
19880;DHT22;10102;50.828;4.416;2023-12-07T06:33:53;4.40;99.90
19880;DHT22;10102;50.828;4.416;2023-12-07T06:36:23;4.40;99.90
19880;DHT22;10102;50.828;4.416;2023-12-07T06:38:49;4.40;99.90
19880;DHT22;10102;50.828;4.416;2023-12-07T06:41:15;4.30;99.90
19880;DHT22;10102;50.828;4.416;2023-12-07T06:43:41;4.40;99.90
19880;DHT22;10102;50.828;4.416;2023-12-07T06:46:11;4.50;99.90
19880;DHT22;10102;50.828;4.416;2023-12-07T06:51:03;4.60;99.90
19880;DHT22;10102;50.828;4.416;2023-12-07T06:53:29;4.50;99.90
19880;DHT22;10102;50.828;4.416;2023-12-07T06:55:57;4.60;99.90
19880;DHT22;10102;50.828;4.416;2023-12-07T07:00:49;4.70;99.90
19880;DHT22;10102;50.828;4.416;2023-12-07T07:05:41;4.70;99.90
19880;DHT22;10102;50.828;4.416;2023-12-07T07:08:07;4.70;99.90
19880;DHT22;10102;50.828;4.416;2023-12-07T07:10:35;4.80;99.90
19880;DHT22;10102;50.828;4.416;2023-12-07T07:13:02;4.70;99.90
19880;DHT22;10102;50.828;4.416;2023-12-07T07:15:32;4.20;99.90
19880;DHT22;10102;50.828;4.416;2023-12-07T07:17:58;4.80;99.90
19880;DHT22;10102;50.828;4.416;2023-12-07T07:20:24;4.70;99.90
19880;DHT22;10102;50.828;4.416;2023-12-07T07:22:50;4.80;99.90
19880;DHT22;10102;50.828;4.416;2023-12-07T07:25:16;4.70;99.90
19880;DHT22;10102;50.828;4.416;2023-12-07T07:27:47;4.80;99.90
19880;DHT22;10102;50.828;4.416;2023-12-07T07:30:13;4.60;99.90
19880;DHT22;10102;50.828;4.416;2023-12-07T07:32:39;4.90;99.90
19880;DHT22;10102;50.828;4.416;2023-12-07T07:35:05;4.80;99.90
19880;DHT22;10102;50.828;4.416;2023-12-07T07:37:31;4.70;99.90
19880;DHT22;10102;50.828;4.416;2023-12-07T07:42:22;4.70;99.90
19880;DHT22;10102;50.828;4.416;2023-12-07T07:44:48;4.80;99.90
19880;DHT22;10102;50.828;4.416;2023-12-07T07:49:40;4.90;99.90
19880;DHT22;10102;50.828;4.416;2023-12-07T07:52:05;5.10;99.90
19880;DHT22;10102;50.828;4.416;2023-12-07T07:54:31;4.50;99.90
19880;DHT22;10102;50.828;4.416;2023-12-07T07:56:57;5.00;99.90
19880;DHT22;10102;50.828;4.416;2023-12-07T07:59:23;5.00;99.90
19880;DHT22;10102;50.828;4.416;2023-12-07T08:04:15;5.00;99.90
19880;DHT22;10102;50.828;4.416;2023-12-07T08:06:41;5.00;99.90
19880;DHT22;10102;50.828;4.416;2023-12-07T08:09:08;5.10;99.90
19880;DHT22;10102;50.828;4.416;2023-12-07T08:11:35;5.20;99.90
19880;DHT22;10102;50.828;4.416;2023-12-07T08:14:00;5.20;99.90
19880;DHT22;10102;50.828;4.416;2023-12-07T08:16:26;5.30;99.90
19880;DHT22;10102;50.828;4.416;2023-12-07T08:18:53;5.40;99.90
19880;DHT22;10102;50.828;4.416;2023-12-07T08:21:23;5.70;99.90
19880;DHT22;10102;50.828;4.416;2023-12-07T08:23:48;5.40;99.90
19880;DHT22;10102;50.828;4.416;2023-12-07T08:26:15;5.40;99.90
19880;DHT22;10102;50.828;4.416;2023-12-07T08:28:41;4.90;99.90
19880;DHT22;10102;50.828;4.416;2023-12-07T08:31:07;5.50;99.90
19880;DHT22;10102;50.828;4.416;2023-12-07T08:33:33;5.50;99.90
19880;DHT22;10102;50.828;4.416;2023-12-07T08:36:03;5.70;99.90
19880;DHT22;10102;50.828;4.416;2023-12-07T08:38:29;5.80;99.90
19880;DHT22;10102;50.828;4.416;2023-12-07T08:40:54;5.70;99.90
19880;DHT22;10102;50.828;4.416;2023-12-07T08:43:21;5.60;99.90
19880;DHT22;10102;50.828;4.416;2023-12-07T08:45:53;5.60;99.90
19880;DHT22;10102;50.828;4.416;2023-12-07T08:48:19;5.70;99.90
19880;DHT22;10102;50.828;4.416;2023-12-07T08:50:46;5.60;99.90
19880;DHT22;10102;50.828;4.416;2023-12-07T08:53:12;5.50;99.90
19880;DHT22;10102;50.828;4.416;2023-12-07T08:55:37;5.50;99.90
19880;DHT22;10102;50.828;4.416;2023-12-07T08:58:03;5.60;99.90
19880;DHT22;10102;50.828;4.416;2023-12-07T09:00:32;5.60;99.90
19880;DHT22;10102;50.828;4.416;2023-12-07T09:02:58;5.50;99.90
19880;DHT22;10102;50.828;4.416;2023-12-07T09:05:26;5.60;99.90
19880;DHT22;10102;50.828;4.416;2023-12-07T09:07:52;5.60;99.90
19880;DHT22;10102;50.828;4.416;2023-12-07T09:10:19;5.80;99.90
19880;DHT22;10102;50.828;4.416;2023-12-07T09:12:44;5.80;99.90
19880;DHT22;10102;50.828;4.416;2023-12-07T09:15:10;5.60;99.90
19880;DHT22;10102;50.828;4.416;2023-12-07T09:17:40;5.60;99.90
19880;DHT22;10102;50.828;4.416;2023-12-07T09:20:10;5.70;99.90
19880;DHT22;10102;50.828;4.416;2023-12-07T09:22:45;5.70;99.90
19880;DHT22;10102;50.828;4.416;2023-12-07T09:25:12;5.90;99.90
19880;DHT22;10102;50.828;4.416;2023-12-07T09:27:39;6.10;99.90
19880;DHT22;10102;50.828;4.416;2023-12-07T09:30:09;6.30;99.90
19880;DHT22;10102;50.828;4.416;2023-12-07T09:32:38;6.40;99.90
19880;DHT22;10102;50.828;4.416;2023-12-07T09:35:05;6.50;99.90
19880;DHT22;10102;50.828;4.416;2023-12-07T09:37:34;6.60;99.90
19880;DHT22;10102;50.828;4.416;2023-12-07T09:40:00;6.60;99.90
19880;DHT22;10102;50.828;4.416;2023-12-07T09:42:27;6.60;99.90
19880;DHT22;10102;50.828;4.416;2023-12-07T09:44:54;6.40;99.90
19880;DHT22;10102;50.828;4.416;2023-12-07T09:47:20;6.40;99.90
19880;DHT22;10102;50.828;4.416;2023-12-07T09:49:46;6.60;99.90
19880;DHT22;10102;50.828;4.416;2023-12-07T09:52:12;6.70;99.90
19880;DHT22;10102;50.828;4.416;2023-12-07T09:54:42;6.80;99.90
19880;DHT22;10102;50.828;4.416;2023-12-07T09:57:08;6.80;99.90
19880;DHT22;10102;50.828;4.416;2023-12-07T09:59:37;6.50;99.90
19880;DHT22;10102;50.828;4.416;2023-12-07T10:02:03;7.00;99.90
19880;DHT22;10102;50.828;4.416;2023-12-07T10:06:56;7.20;99.90
19880;DHT22;10102;50.828;4.416;2023-12-07T10:09:23;7.30;99.90
19880;DHT22;10102;50.828;4.416;2023-12-07T10:11:48;7.30;99.90
19880;DHT22;10102;50.828;4.416;2023-12-07T10:14:14;7.20;99.90
19880;DHT22;10102;50.828;4.416;2023-12-07T10:16:53;7.60;99.90
19880;DHT22;10102;50.828;4.416;2023-12-07T10:19:21;8.40;99.90
19880;DHT22;10102;50.828;4.416;2023-12-07T10:21:51;8.30;99.90
19880;DHT22;10102;50.828;4.416;2023-12-07T10:24:21;9.40;99.90
19880;DHT22;10102;50.828;4.416;2023-12-07T10:26:49;10.20;99.90
19880;DHT22;10102;50.828;4.416;2023-12-07T10:29:17;10.90;99.90
19880;DHT22;10102;50.828;4.416;2023-12-07T10:31:43;11.00;99.90
19880;DHT22;10102;50.828;4.416;2023-12-07T10:34:10;11.90;99.90
19880;DHT22;10102;50.828;4.416;2023-12-07T10:36:36;12.80;99.90
19880;DHT22;10102;50.828;4.416;2023-12-07T10:39:02;13.40;99.90
19880;DHT22;10102;50.828;4.416;2023-12-07T10:41:33;13.20;99.90
19880;DHT22;10102;50.828;4.416;2023-12-07T10:44:01;13.40;99.90
19880;DHT22;10102;50.828;4.416;2023-12-07T10:46:27;13.10;99.90
19880;DHT22;10102;50.828;4.416;2023-12-07T10:49:01;13.30;99.90
19880;DHT22;10102;50.828;4.416;2023-12-07T10:51:41;12.90;99.90
19880;DHT22;10102;50.828;4.416;2023-12-07T10:54:07;12.30;99.90
19880;DHT22;10102;50.828;4.416;2023-12-07T10:56:43;12.10;99.90
19880;DHT22;10102;50.828;4.416;2023-12-07T10:59:10;12.00;99.90
19880;DHT22;10102;50.828;4.416;2023-12-07T11:01:39;11.90;99.90
19880;DHT22;10102;50.828;4.416;2023-12-07T11:04:06;12.50;99.90
19880;DHT22;10102;50.828;4.416;2023-12-07T11:06:35;12.10;99.90
19880;DHT22;10102;50.828;4.416;2023-12-07T11:09:08;12.10;99.90
19880;DHT22;10102;50.828;4.416;2023-12-07T11:11:42;12.20;99.90
19880;DHT22;10102;50.828;4.416;2023-12-07T11:14:10;12.20;99.90
19880;DHT22;10102;50.828;4.416;2023-12-07T11:16:45;12.80;99.90
19880;DHT22;10102;50.828;4.416;2023-12-07T11:21:56;12.10;99.90
19880;DHT22;10102;50.828;4.416;2023-12-07T11:24:23;12.10;99.90
19880;DHT22;10102;50.828;4.416;2023-12-07T11:26:52;12.40;99.90
19880;DHT22;10102;50.828;4.416;2023-12-07T11:29:21;12.80;99.90
19880;DHT22;10102;50.828;4.416;2023-12-07T11:31:48;12.30;99.90
19880;DHT22;10102;50.828;4.416;2023-12-07T11:34:36;12.20;99.90
19880;DHT22;10102;50.828;4.416;2023-12-07T11:37:06;12.40;99.90
19880;DHT22;10102;50.828;4.416;2023-12-07T11:39:37;12.50;99.90
19880;DHT22;10102;50.828;4.416;2023-12-07T11:42:15;13.00;99.90
19880;DHT22;10102;50.828;4.416;2023-12-07T11:44:42;13.10;99.90
19880;DHT22;10102;50.828;4.416;2023-12-07T11:47:10;12.50;99.90
19880;DHT22;10102;50.828;4.416;2023-12-07T11:49:42;11.70;99.90
19880;DHT22;10102;50.828;4.416;2023-12-07T11:52:19;11.20;99.90
19880;DHT22;10102;50.828;4.416;2023-12-07T11:54:49;10.40;99.90
19880;DHT22;10102;50.828;4.416;2023-12-07T11:57:16;10.10;99.90
19880;DHT22;10102;50.828;4.416;2023-12-07T11:59:46;9.70;99.90
19880;DHT22;10102;50.828;4.416;2023-12-07T12:02:13;9.60;99.90
19880;DHT22;10102;50.828;4.416;2023-12-07T12:04:42;9.50;99.90
19880;DHT22;10102;50.828;4.416;2023-12-07T12:07:08;8.80;99.90
19880;DHT22;10102;50.828;4.416;2023-12-07T12:09:34;9.30;99.90
19880;DHT22;10102;50.828;4.416;2023-12-07T12:12:00;9.40;99.90
19880;DHT22;10102;50.828;4.416;2023-12-07T12:14:27;9.30;99.90
19880;DHT22;10102;50.828;4.416;2023-12-07T12:16:53;9.40;99.90
19880;DHT22;10102;50.828;4.416;2023-12-07T12:19:22;8.80;99.90
19880;DHT22;10102;50.828;4.416;2023-12-07T12:21:49;8.60;99.90
19880;DHT22;10102;50.828;4.416;2023-12-07T12:24:15;8.30;99.90
19880;DHT22;10102;50.828;4.416;2023-12-07T12:26:42;8.40;99.90
19880;DHT22;10102;50.828;4.416;2023-12-07T12:29:08;8.30;99.90
19880;DHT22;10102;50.828;4.416;2023-12-07T12:31:35;8.10;99.90
19880;DHT22;10102;50.828;4.416;2023-12-07T12:34:01;8.50;99.90
19880;DHT22;10102;50.828;4.416;2023-12-07T12:36:28;8.40;99.90
19880;DHT22;10102;50.828;4.416;2023-12-07T12:38:55;8.60;99.90
19880;DHT22;10102;50.828;4.416;2023-12-07T12:41:22;8.50;99.90
19880;DHT22;10102;50.828;4.416;2023-12-07T12:43:48;8.70;99.90
19880;DHT22;10102;50.828;4.416;2023-12-07T12:46:15;8.50;99.90
19880;DHT22;10102;50.828;4.416;2023-12-07T12:48:55;8.70;99.90
19880;DHT22;10102;50.828;4.416;2023-12-07T12:51:26;8.40;99.90
19880;DHT22;10102;50.828;4.416;2023-12-07T12:53:53;8.40;99.90
19880;DHT22;10102;50.828;4.416;2023-12-07T12:56:19;8.20;99.90
19880;DHT22;10102;50.828;4.416;2023-12-07T12:58:47;8.10;99.90
19880;DHT22;10102;50.828;4.416;2023-12-07T13:01:15;8.20;99.90
19880;DHT22;10102;50.828;4.416;2023-12-07T13:03:43;8.40;99.90
19880;DHT22;10102;50.828;4.416;2023-12-07T13:06:11;8.50;99.90
19880;DHT22;10102;50.828;4.416;2023-12-07T13:08:37;8.40;99.90
19880;DHT22;10102;50.828;4.416;2023-12-07T13:11:03;8.50;99.90
19880;DHT22;10102;50.828;4.416;2023-12-07T13:13:29;8.60;99.90
19880;DHT22;10102;50.828;4.416;2023-12-07T13:15:55;8.60;99.90
19880;DHT22;10102;50.828;4.416;2023-12-07T13:18:21;8.40;99.90
19880;DHT22;10102;50.828;4.416;2023-12-07T13:20:46;8.40;99.90
19880;DHT22;10102;50.828;4.416;2023-12-07T13:23:13;8.30;99.90
19880;DHT22;10102;50.828;4.416;2023-12-07T13:25:39;8.40;99.90
19880;DHT22;10102;50.828;4.416;2023-12-07T13:28:05;8.30;99.90
19880;DHT22;10102;50.828;4.416;2023-12-07T13:30:31;8.40;99.90
19880;DHT22;10102;50.828;4.416;2023-12-07T13:33:01;8.40;99.90
19880;DHT22;10102;50.828;4.416;2023-12-07T13:35:27;8.40;99.90
19880;DHT22;10102;50.828;4.416;2023-12-07T13:37:54;8.40;99.90
19880;DHT22;10102;50.828;4.416;2023-12-07T13:40:19;8.40;99.90
19880;DHT22;10102;50.828;4.416;2023-12-07T13:42:45;8.50;99.90
19880;DHT22;10102;50.828;4.416;2023-12-07T13:45:10;8.50;99.90
19880;DHT22;10102;50.828;4.416;2023-12-07T13:47:36;8.40;99.90
19880;DHT22;10102;50.828;4.416;2023-12-07T13:50:04;8.30;99.90
19880;DHT22;10102;50.828;4.416;2023-12-07T13:52:30;8.30;99.90
19880;DHT22;10102;50.828;4.416;2023-12-07T13:55:00;8.00;99.90
19880;DHT22;10102;50.828;4.416;2023-12-07T13:57:27;8.00;99.90
19880;DHT22;10102;50.828;4.416;2023-12-07T13:59:54;8.00;99.90
19880;DHT22;10102;50.828;4.416;2023-12-07T14:02:20;8.20;99.90
19880;DHT22;10102;50.828;4.416;2023-12-07T14:04:47;8.10;99.90
19880;DHT22;10102;50.828;4.416;2023-12-07T14:07:17;8.20;99.90
19880;DHT22;10102;50.828;4.416;2023-12-07T14:09:44;8.20;99.90
19880;DHT22;10102;50.828;4.416;2023-12-07T14:12:12;8.20;99.90
19880;DHT22;10102;50.828;4.416;2023-12-07T14:14:39;8.30;99.90
19880;DHT22;10102;50.828;4.416;2023-12-07T14:17:05;8.40;99.90
19880;DHT22;10102;50.828;4.416;2023-12-07T14:19:32;8.40;99.90
19880;DHT22;10102;50.828;4.416;2023-12-07T14:21:57;7.80;99.90
19880;DHT22;10102;50.828;4.416;2023-12-07T14:24:26;8.20;99.90
19880;DHT22;10102;50.828;4.416;2023-12-07T14:26:54;8.10;99.90
19880;DHT22;10102;50.828;4.416;2023-12-07T14:29:20;8.20;99.90
19880;DHT22;10102;50.828;4.416;2023-12-07T14:31:47;8.00;99.90
19880;DHT22;10102;50.828;4.416;2023-12-07T14:34:14;8.20;99.90
19880;DHT22;10102;50.828;4.416;2023-12-07T14:36:41;8.30;99.90
19880;DHT22;10102;50.828;4.416;2023-12-07T14:39:13;8.30;99.90
19880;DHT22;10102;50.828;4.416;2023-12-07T14:41:49;8.30;99.90
19880;DHT22;10102;50.828;4.416;2023-12-07T14:44:16;7.60;99.90
19880;DHT22;10102;50.828;4.416;2023-12-07T14:46:43;7.90;99.90
19880;DHT22;10102;50.828;4.416;2023-12-07T14:49:12;7.90;99.90
19880;DHT22;10102;50.828;4.416;2023-12-07T14:51:38;8.00;99.90
19880;DHT22;10102;50.828;4.416;2023-12-07T14:54:05;7.80;99.90
19880;DHT22;10102;50.828;4.416;2023-12-07T14:56:38;7.90;99.90
19880;DHT22;10102;50.828;4.416;2023-12-07T14:59:06;7.80;99.90
19880;DHT22;10102;50.828;4.416;2023-12-07T15:01:33;7.90;99.90
19880;DHT22;10102;50.828;4.416;2023-12-07T15:03:59;7.90;99.90
19880;DHT22;10102;50.828;4.416;2023-12-07T15:06:28;7.90;99.90
19880;DHT22;10102;50.828;4.416;2023-12-07T15:08:54;7.90;99.90
19880;DHT22;10102;50.828;4.416;2023-12-07T15:11:19;7.90;99.90
19880;DHT22;10102;50.828;4.416;2023-12-07T15:18:38;7.80;99.90
19880;DHT22;10102;50.828;4.416;2023-12-07T15:21:07;7.80;99.90
19880;DHT22;10102;50.828;4.416;2023-12-07T15:25:58;7.90;99.90
19880;DHT22;10102;50.828;4.416;2023-12-07T15:28:24;8.00;99.90
19880;DHT22;10102;50.828;4.416;2023-12-07T15:30:50;7.90;99.90
19880;DHT22;10102;50.828;4.416;2023-12-07T15:33:16;7.90;99.90
19880;DHT22;10102;50.828;4.416;2023-12-07T15:35:42;7.80;99.90
19880;DHT22;10102;50.828;4.416;2023-12-07T15:38:08;7.80;99.90
19880;DHT22;10102;50.828;4.416;2023-12-07T15:40:36;7.70;99.90
19880;DHT22;10102;50.828;4.416;2023-12-07T15:43:02;8.00;99.90
19880;DHT22;10102;50.828;4.416;2023-12-07T15:45:28;7.70;99.90
19880;DHT22;10102;50.828;4.416;2023-12-07T15:50:20;7.60;99.90
19880;DHT22;10102;50.828;4.416;2023-12-07T15:52:45;7.40;99.90
19880;DHT22;10102;50.828;4.416;2023-12-07T15:55:11;7.10;99.90
19880;DHT22;10102;50.828;4.416;2023-12-07T16:00:03;7.30;99.90
19880;DHT22;10102;50.828;4.416;2023-12-07T16:02:29;7.30;99.90
19880;DHT22;10102;50.828;4.416;2023-12-07T16:04:55;7.20;99.90
19880;DHT22;10102;50.828;4.416;2023-12-07T16:07:20;7.20;99.90
19880;DHT22;10102;50.828;4.416;2023-12-07T16:09:46;7.30;99.90
19880;DHT22;10102;50.828;4.416;2023-12-07T16:15:31;7.10;99.90
19880;DHT22;10102;50.828;4.416;2023-12-07T16:22:49;7.30;99.90
19880;DHT22;10102;50.828;4.416;2023-12-07T16:25:14;7.30;99.90
19880;DHT22;10102;50.828;4.416;2023-12-07T16:27:40;7.30;99.90
19880;DHT22;10102;50.828;4.416;2023-12-07T16:30:07;7.30;99.90
19880;DHT22;10102;50.828;4.416;2023-12-07T16:32:36;7.30;99.90
19880;DHT22;10102;50.828;4.416;2023-12-07T16:37:39;7.30;99.90
19880;DHT22;10102;50.828;4.416;2023-12-07T16:40:11;7.20;99.90
19880;DHT22;10102;50.828;4.416;2023-12-07T16:42:40;7.30;99.90
19880;DHT22;10102;50.828;4.416;2023-12-07T16:45:21;7.20;99.90
19880;DHT22;10102;50.828;4.416;2023-12-07T16:47:47;7.20;99.90
19880;DHT22;10102;50.828;4.416;2023-12-07T16:50:14;7.30;99.90
19880;DHT22;10102;50.828;4.416;2023-12-07T16:52:40;7.20;99.90
19880;DHT22;10102;50.828;4.416;2023-12-07T16:55:06;7.40;99.90
19880;DHT22;10102;50.828;4.416;2023-12-07T16:59:59;7.20;99.90
19880;DHT22;10102;50.828;4.416;2023-12-07T17:02:28;7.10;99.90
19880;DHT22;10102;50.828;4.416;2023-12-07T17:04:55;7.20;99.90